createdAt,value
2022-11-01T00:00:30.576Z,12.6
2022-11-01T00:01:34.832Z,12.4
2022-11-01T00:02:38.843Z,13
2022-11-01T00:03:42.797Z,12.7
2022-11-01T00:04:47.444Z,12.1
2022-11-01T00:05:51.528Z,13.4
2022-11-01T00:06:56.125Z,14.1
2022-11-01T00:08:00.526Z,11.4
2022-11-01T00:09:04.709Z,12.6
2022-11-01T00:10:08.878Z,13.4
2022-11-01T00:11:13.052Z,14.4
2022-11-01T00:12:17.599Z,15.8
2022-11-01T00:13:22.111Z,11.4
2022-11-01T00:14:26.151Z,11.4
2022-11-01T00:15:30.724Z,11.9
2022-11-01T00:16:34.832Z,11.8
2022-11-01T00:17:39.488Z,12.9
2022-11-01T00:18:44.020Z,11.6
2022-11-01T00:19:48.057Z,11.1
2022-11-01T00:20:52.205Z,12.9
2022-11-01T00:21:56.689Z,12.3
2022-11-01T00:23:01.012Z,14.6
2022-11-01T00:24:04.885Z,11.4
2022-11-01T00:25:09.473Z,13
2022-11-01T00:26:13.553Z,10.5
2022-11-01T00:27:17.582Z,10.6
2022-11-01T00:28:22.126Z,11.8
2022-11-01T00:29:26.160Z,11.6
2022-11-01T00:30:30.184Z,10.8
2022-11-01T00:31:37.357Z,12
2022-11-01T00:32:41.549Z,12.8
2022-11-01T00:33:46.116Z,14.6
2022-11-01T00:34:50.196Z,11.9
2022-11-01T00:35:54.304Z,13.9
2022-11-01T00:37:01.447Z,13.7
2022-11-01T00:38:05.981Z,13.7
2022-11-01T00:39:10.184Z,12.1
2022-11-01T00:40:14.676Z,12.1
2022-11-01T00:41:18.877Z,11.8
2022-11-01T00:42:23.347Z,12.2
2022-11-01T00:43:27.909Z,12.4
2022-11-01T00:44:32.061Z,12.5
2022-11-01T00:45:36.536Z,15.8
2022-11-01T00:46:40.816Z,13.2
2022-11-01T00:47:45.192Z,14.2
2022-11-01T00:48:49.324Z,15.2
2022-11-01T00:49:53.955Z,14.2
2022-11-01T00:50:58.078Z,15.5
2022-11-01T00:52:02.589Z,14.9
2022-11-01T00:53:06.720Z,15
2022-11-01T00:54:11.276Z,15.9
2022-11-01T00:55:15.279Z,15.1
2022-11-01T00:56:19.455Z,15.2
2022-11-01T00:57:23.992Z,16.4
2022-11-01T00:58:28.043Z,20.3
2022-11-01T00:59:32.776Z,19.4
2022-11-01T01:00:37.219Z,20.7
2022-11-01T01:01:41.965Z,20
2022-11-01T01:02:46.328Z,20.1
2022-11-01T01:03:50.427Z,19.1
2022-11-01T01:04:54.601Z,18.8
2022-11-01T01:05:58.581Z,22.3
2022-11-01T01:07:02.708Z,17.4
2022-11-01T01:08:06.759Z,19
2022-11-01T01:09:10.888Z,19.2
2022-11-01T01:10:15.037Z,16.8
2022-11-01T01:11:19.495Z,14.9
2022-11-01T01:12:23.607Z,16.7
2022-11-01T01:13:27.620Z,16.8
2022-11-01T01:14:32.399Z,16.5
2022-11-01T01:15:36.317Z,16.8
2022-11-01T01:16:43.319Z,16.4
2022-11-01T01:17:44.363Z,16.7
2022-11-01T01:18:48.529Z,15.5
2022-11-01T01:19:53.023Z,15.9
2022-11-01T01:20:57.083Z,17.3
2022-11-01T01:22:04.371Z,16.9
2022-11-01T01:23:08.893Z,15.7
2022-11-01T01:24:13.369Z,17.5
2022-11-01T01:25:17.444Z,18.7
2022-11-01T01:26:21.612Z,17.1
2022-11-01T01:27:25.650Z,17
2022-11-01T01:28:29.804Z,19
2022-11-01T01:29:34.297Z,17.4
2022-11-01T01:30:38.852Z,19
2022-11-01T01:31:43.004Z,16.4
2022-11-01T01:32:47.499Z,17.5
2022-11-01T01:33:51.553Z,20.2
2022-11-01T01:34:55.699Z,18.5
2022-11-01T01:35:59.815Z,17.1
2022-11-01T01:37:04.333Z,18.1
2022-11-01T01:38:08.471Z,19.9
2022-11-01T01:39:12.572Z,19.3
2022-11-01T01:40:16.656Z,17.4
2022-11-01T01:41:21.288Z,18.2
2022-11-01T01:42:30.860Z,17.8
2022-11-01T01:43:35.340Z,18.9
2022-11-01T01:44:42.523Z,18.8
2022-11-01T01:45:47.176Z,18.1
2022-11-01T01:46:51.672Z,18.4
2022-11-01T01:47:55.849Z,17.6
2022-11-01T01:49:08.028Z,18.2
2022-11-01T01:50:12.581Z,15
2022-11-01T01:51:17.028Z,14.4
2022-11-01T01:52:21.115Z,15.6
2022-11-01T01:53:25.320Z,14.9
2022-11-01T01:54:35.383Z,15.5
2022-11-01T01:55:39.493Z,14.2
2022-11-01T01:56:46.575Z,13.2
2022-11-01T01:57:50.656Z,14.7
2022-11-01T01:58:54.816Z,12.8
2022-11-01T02:00:04.443Z,14.9
2022-11-01T02:01:09.098Z,13.7
2022-11-01T02:02:13.259Z,15.7
2022-11-01T02:03:17.307Z,12.8
2022-11-01T02:04:21.872Z,16.4
2022-11-01T02:05:25.919Z,15.1
2022-11-01T02:06:35.516Z,15.9
2022-11-01T02:07:39.575Z,14.2
2022-11-01T02:08:43.752Z,15.3
2022-11-01T02:09:48.291Z,12.8
2022-11-01T02:10:52.411Z,13.8
2022-11-01T02:11:56.967Z,11.7
2022-11-01T02:13:01.156Z,14.3
2022-11-01T02:14:05.647Z,13
2022-11-01T02:15:09.755Z,11
2022-11-01T02:16:13.779Z,11.7
2022-11-01T02:17:28.559Z,11.4
2022-11-01T02:18:37.819Z,12.9
2022-11-01T02:19:42.280Z,11.2
2022-11-01T02:20:57.156Z,12.5
2022-11-01T02:22:09.284Z,12.5
2022-11-01T02:23:24.112Z,12.2
2022-11-01T02:24:38.788Z,11.8
2022-11-01T02:25:42.863Z,12.4
2022-11-01T02:26:55.060Z,12.8
2022-11-01T02:28:07.300Z,12
2022-11-01T02:29:22.099Z,14
2022-11-01T02:30:29.155Z,13.2
2022-11-01T02:31:38.792Z,13.6
2022-11-01T02:32:53.640Z,11.4
2022-11-01T02:34:02.800Z,11.5
2022-11-01T02:35:12.416Z,11.4
2022-11-01T02:36:27.272Z,10.7
2022-11-01T02:37:41.964Z,12.2
2022-11-01T02:38:56.781Z,11.5
2022-11-01T02:40:00.805Z,10.3
2022-11-01T02:41:07.883Z,12.2
2022-11-01T02:42:22.732Z,12.2
2022-11-01T02:43:29.353Z,12.3
2022-11-01T02:44:38.995Z,11.2
2022-11-01T02:45:43.107Z,10.9
2022-11-01T02:46:47.091Z,12.6
2022-11-01T02:47:56.843Z,12.3
2022-11-01T02:49:01.167Z,10.7
2022-11-01T02:50:05.764Z,11.4
2022-11-01T02:51:09.936Z,10.7
2022-11-01T02:52:14.106Z,11.2
2022-11-01T02:53:18.339Z,10.8
2022-11-01T02:54:22.811Z,10.2
2022-11-01T02:55:32.505Z,10.3
2022-11-01T02:56:36.456Z,8.8
2022-11-01T02:57:40.545Z,9.2
2022-11-01T02:58:44.680Z,10.8
2022-11-01T02:59:48.768Z,10.9
2022-11-01T03:00:53.009Z,11.7
2022-11-01T03:01:57.606Z,9.6
2022-11-01T03:03:01.459Z,10.9
2022-11-01T03:04:05.619Z,11.6
2022-11-01T03:05:09.644Z,10.7
2022-11-01T03:06:19.391Z,9.7
2022-11-01T03:07:28.968Z,12.2
2022-11-01T03:08:33.019Z,11.6
2022-11-01T03:09:45.246Z,12.3
2022-11-01T03:10:49.939Z,9.4
2022-11-01T03:12:04.591Z,10
2022-11-01T03:13:17.283Z,8.6
2022-11-01T03:14:21.425Z,10.4
2022-11-01T03:15:33.573Z,9.9
2022-11-01T03:16:37.747Z,10
2022-11-01T03:17:44.859Z,10.5
2022-11-01T03:18:49.372Z,10.6
2022-11-01T03:20:01.983Z,10.7
2022-11-01T03:21:06.207Z,11
2022-11-01T03:22:10.986Z,9.5
2022-11-01T03:23:20.466Z,10.3
2022-11-01T03:24:30.099Z,10.8
2022-11-01T03:25:39.692Z,10.4
2022-11-01T03:26:43.815Z,9.7
2022-11-01T03:27:47.839Z,10.1
2022-11-01T03:28:51.931Z,9.5
2022-11-01T03:29:55.931Z,10.8
2022-11-01T03:31:00.087Z,10.8
2022-11-01T03:32:04.151Z,7.9
2022-11-01T03:33:08.255Z,8.3
2022-11-01T03:34:12.343Z,11.2
2022-11-01T03:35:16.423Z,9.1
2022-11-01T03:36:20.973Z,10.6
2022-11-01T03:37:25.071Z,10.8
2022-11-01T03:38:29.558Z,10.2
2022-11-01T03:39:33.705Z,9.3
2022-11-01T03:40:45.987Z,11
2022-11-01T03:41:50.609Z,13.5
2022-11-01T03:42:55.092Z,9.6
2022-11-01T03:43:59.244Z,9.4
2022-11-01T03:45:03.753Z,11.2
2022-11-01T03:46:08.463Z,10.6
2022-11-01T03:47:13.083Z,10.1
2022-11-01T03:48:17.503Z,10.3
2022-11-01T03:49:22.045Z,8.6
2022-11-01T03:50:26.079Z,10.4
2022-11-01T03:51:30.255Z,11.2
2022-11-01T03:52:34.403Z,10.3
2022-11-01T03:53:39.047Z,8.9
2022-11-01T03:54:43.503Z,10.6
2022-11-01T03:55:47.603Z,10.1
2022-11-01T03:56:51.667Z,10.3
2022-11-01T03:57:55.846Z,10.9
2022-11-01T03:59:00.411Z,10.3
2022-11-01T04:00:05.179Z,10.9
2022-11-01T04:01:09.668Z,10.1
2022-11-01T04:02:14.242Z,12.5
2022-11-01T04:03:18.259Z,11.1
2022-11-01T04:04:22.816Z,10.8
2022-11-01T04:05:27.331Z,11.2
2022-11-01T04:06:31.411Z,10.5
2022-11-01T04:07:35.433Z,12.4
2022-11-01T04:08:39.556Z,9.1
2022-11-01T04:09:43.607Z,11
2022-11-01T04:10:47.767Z,11.7
2022-11-01T04:11:51.759Z,11.6
2022-11-01T04:12:55.803Z,10.3
2022-11-01T04:14:00.425Z,10.5
2022-11-01T04:15:09.616Z,11.5
2022-11-01T04:16:19.299Z,11.8
2022-11-01T04:17:28.953Z,9.7
2022-11-01T04:19:48.299Z,12.2
2022-11-01T04:20:57.546Z,12.7
2022-11-01T04:22:12.208Z,11.7
2022-11-01T04:23:16.380Z,14.1
2022-11-01T04:24:21.227Z,13.2
2022-11-01T04:25:25.627Z,11.1
2022-11-01T04:26:30.079Z,11.3
2022-11-01T04:27:34.636Z,10.3
2022-11-01T04:28:39.171Z,11.4
2022-11-01T04:29:43.342Z,11.8
2022-11-01T04:30:47.859Z,13.8
2022-11-01T04:31:52.431Z,9.5
2022-11-01T04:32:56.991Z,10.9
2022-11-01T04:34:01.196Z,13.3
2022-11-01T04:36:10.203Z,10.1
2022-11-01T04:37:14.779Z,10.6
2022-11-01T04:38:18.854Z,10.9
2022-11-01T04:39:22.903Z,10.8
2022-11-01T04:40:26.942Z,9.6
2022-11-01T04:41:31.139Z,9.6
2022-11-01T04:42:35.582Z,10.4
2022-11-01T04:43:39.706Z,14.6
2022-11-01T04:44:44.215Z,10.6
2022-11-01T04:45:48.291Z,9
2022-11-01T04:46:54.879Z,9.8
2022-11-01T04:47:59.154Z,12.8
2022-11-01T04:49:06.223Z,11.9
2022-11-01T04:50:10.632Z,10.8
2022-11-01T04:51:14.743Z,14
2022-11-01T04:52:18.981Z,11.6
2022-11-01T04:53:23.479Z,10.9
2022-11-01T04:54:27.563Z,12.1
2022-11-01T04:55:32.103Z,10.1
2022-11-01T04:56:36.143Z,11.3
2022-11-01T04:57:40.166Z,11.7
2022-11-01T04:58:45.199Z,10.3
2022-11-01T04:59:48.431Z,10.3
2022-11-01T05:00:52.498Z,10.9
2022-11-01T05:01:56.530Z,10.9
2022-11-01T05:03:00.889Z,10
2022-11-01T05:04:07.839Z,11.7
2022-11-01T05:05:12.270Z,11.4
2022-11-01T05:06:16.395Z,10.5
2022-11-01T05:07:20.611Z,9.7
2022-11-01T05:08:25.180Z,9.8
2022-11-01T05:09:30.890Z,10.8
2022-11-01T05:10:34.096Z,10.6
2022-11-01T05:11:38.273Z,11.1
2022-11-01T05:12:42.270Z,10.4
2022-11-01T05:13:46.487Z,10.7
2022-11-01T05:14:54.330Z,10.7
2022-11-01T05:16:17.783Z,9.6
2022-11-01T05:16:59.686Z,12.1
2022-11-01T05:18:03.658Z,11
2022-11-01T05:19:07.800Z,10.3
2022-11-01T05:20:11.885Z,11.3
2022-11-01T05:21:16.424Z,10.2
2022-11-01T05:22:20.527Z,11.6
2022-11-01T05:23:24.742Z,11.2
2022-11-01T05:24:29.366Z,11.4
2022-11-01T05:25:35.384Z,10.9
2022-11-01T05:26:37.851Z,10.4
2022-11-01T05:27:41.874Z,13.3
2022-11-01T05:28:45.924Z,11.1
2022-11-01T05:29:50.055Z,11.7
2022-11-01T05:30:54.174Z,11
2022-11-01T05:31:58.187Z,10.5
2022-11-01T05:33:02.319Z,10.7
2022-11-01T05:34:06.349Z,12.8
2022-11-01T05:35:10.495Z,9.7
2022-11-01T05:36:15.027Z,11.4
2022-11-01T05:37:20.851Z,10.7
2022-11-01T05:38:24.227Z,10.5
2022-11-01T05:39:28.174Z,10.6
2022-11-01T05:40:32.335Z,11.4
2022-11-01T05:41:36.835Z,11.1
2022-11-01T05:42:41.000Z,13.6
2022-11-01T05:43:45.618Z,11.8
2022-11-01T05:44:50.214Z,13
2022-11-01T05:45:54.634Z,12.6
2022-11-01T05:46:58.765Z,11.8
2022-11-01T05:48:04.205Z,13
2022-11-01T05:49:08.461Z,10.8
2022-11-01T05:50:13.019Z,12.8
2022-11-01T05:51:17.250Z,14.4
2022-11-01T05:52:22.222Z,10.4
2022-11-01T05:53:26.359Z,11.8
2022-11-01T05:54:30.998Z,11.9
2022-11-01T05:55:35.394Z,11.8
2022-11-01T05:56:39.470Z,10.7
2022-11-01T05:57:43.696Z,10.7
2022-11-01T05:58:48.195Z,9.8
2022-11-01T05:59:52.743Z,11.2
2022-11-01T06:00:56.828Z,10.9
2022-11-01T06:02:01.674Z,9.9
2022-11-01T06:03:06.478Z,10.1
2022-11-01T06:04:10.614Z,10.2
2022-11-01T06:05:15.042Z,10.7
2022-11-01T06:06:19.206Z,9.8
2022-11-01T06:07:23.771Z,10.8
2022-11-01T06:08:28.227Z,11.5
2022-11-01T06:09:32.248Z,9.5
2022-11-01T06:10:36.470Z,11.1
2022-11-01T06:11:41.873Z,11.7
2022-11-01T06:12:45.097Z,9.4
2022-11-01T06:13:49.239Z,11
2022-11-01T06:14:53.708Z,9.3
2022-11-01T06:15:57.754Z,12.2
2022-11-01T06:17:01.824Z,10.8
2022-11-01T06:18:06.363Z,12.3
2022-11-01T06:19:10.571Z,10.1
2022-11-01T06:20:14.685Z,11.5
2022-11-01T06:21:18.842Z,9
2022-11-01T06:22:23.278Z,9.8
2022-11-01T06:23:27.394Z,12.5
2022-11-01T06:24:32.038Z,12.7
2022-11-01T06:25:36.542Z,9.9
2022-11-01T06:26:41.035Z,11.5
2022-11-01T06:27:45.159Z,13.7
2022-11-01T06:28:49.715Z,13.2
2022-11-01T06:29:53.840Z,11.2
2022-11-01T06:30:58.795Z,12.7
2022-11-01T06:32:03.129Z,12.9
2022-11-01T06:33:07.639Z,12.6
2022-11-01T06:34:12.112Z,13.8
2022-11-01T06:35:16.233Z,11.4
2022-11-01T06:36:20.555Z,12.8
2022-11-01T06:37:24.934Z,13.1
2022-11-01T06:38:29.095Z,13.1
2022-11-01T06:39:33.574Z,13
2022-11-01T06:40:38.136Z,12.8
2022-11-01T06:41:42.214Z,15.9
2022-11-01T06:42:46.970Z,16
2022-11-01T06:43:50.325Z,12.7
2022-11-01T06:44:54.444Z,13.4
2022-11-01T06:45:58.674Z,12.9
2022-11-01T06:47:03.175Z,13.2
2022-11-01T06:48:07.787Z,10.8
2022-11-01T06:49:14.835Z,11.5
2022-11-01T06:50:16.789Z,11.6
2022-11-01T06:51:20.985Z,11
2022-11-01T06:52:25.490Z,12.2
2022-11-01T06:53:30.091Z,13.2
2022-11-01T06:54:34.630Z,13.7
2022-11-01T06:55:39.231Z,12.7
2022-11-01T06:56:43.923Z,12.2
2022-11-01T06:57:48.610Z,11.4
2022-11-01T06:58:57.027Z,13
2022-11-01T07:00:01.675Z,13.4
2022-11-01T07:01:06.400Z,13.3
2022-11-01T07:02:14.093Z,12.7
2022-11-01T07:03:15.634Z,11.9
2022-11-01T07:04:19.972Z,12.8
2022-11-01T07:05:24.998Z,10.1
2022-11-01T07:06:29.061Z,11.2
2022-11-01T07:07:33.603Z,12
2022-11-01T07:08:37.809Z,11.6
2022-11-01T07:09:42.290Z,9.5
2022-11-01T07:10:46.390Z,10.7
2022-11-01T07:11:50.933Z,15
2022-11-01T07:12:55.483Z,9.8
2022-11-01T07:14:02.670Z,11.1
2022-11-01T07:15:06.758Z,9.9
2022-11-01T07:16:11.274Z,10.7
2022-11-01T07:17:15.414Z,12.8
2022-11-01T07:18:19.514Z,9.6
2022-11-01T07:19:24.142Z,9.4
2022-11-01T07:20:28.697Z,10.5
2022-11-01T07:21:33.344Z,9.7
2022-11-01T07:22:37.785Z,10.7
2022-11-01T07:23:42.267Z,10.1
2022-11-01T07:24:46.417Z,8.5
2022-11-01T07:25:51.018Z,10.7
2022-11-01T07:26:55.602Z,10.6
2022-11-01T07:27:59.655Z,11.5
2022-11-01T07:29:04.451Z,9.2
2022-11-01T07:30:09.006Z,11.7
2022-11-01T07:31:13.439Z,11.4
2022-11-01T07:32:18.254Z,11.5
2022-11-01T07:33:22.573Z,12.2
2022-11-01T07:34:27.150Z,10.8
2022-11-01T07:35:31.187Z,10.6
2022-11-01T07:36:35.734Z,12.6
2022-11-01T07:37:39.840Z,11.3
2022-11-01T07:38:43.899Z,10.5
2022-11-01T07:39:48.494Z,12
2022-11-01T07:40:53.158Z,10.9
2022-11-01T07:41:57.682Z,13.2
2022-11-01T07:43:02.223Z,9.9
2022-11-01T07:44:06.827Z,11.3
2022-11-01T07:45:13.033Z,10.3
2022-11-01T07:46:15.979Z,11.1
2022-11-01T07:47:20.074Z,12.8
2022-11-01T07:48:24.658Z,13
2022-11-01T07:49:29.131Z,12.2
2022-11-01T07:50:33.722Z,13.4
2022-11-01T07:51:38.277Z,10.7
2022-11-01T07:52:42.463Z,11
2022-11-01T07:53:46.673Z,11.4
2022-11-01T07:54:51.059Z,14.1
2022-11-01T07:55:55.242Z,12
2022-11-01T07:57:02.627Z,10.1
2022-11-01T07:58:07.277Z,11
2022-11-01T07:59:11.495Z,11.5
2022-11-01T08:00:15.942Z,10.7
2022-11-01T08:01:21.137Z,9.6
2022-11-01T08:02:25.378Z,13.4
2022-11-01T08:03:29.338Z,10.9
2022-11-01T08:04:33.886Z,11.3
2022-11-01T08:05:38.003Z,11.4
2022-11-01T08:06:43.519Z,11.3
2022-11-01T08:07:46.680Z,10.7
2022-11-01T08:08:50.817Z,11.2
2022-11-01T08:09:55.867Z,10.6
2022-11-01T08:10:59.930Z,12.4
2022-11-01T08:12:04.522Z,12.5
2022-11-01T08:13:08.673Z,10.9
2022-11-01T08:14:18.266Z,13.9
2022-11-01T08:15:22.343Z,11.2
2022-11-01T08:16:26.502Z,10.7
2022-11-01T08:17:31.067Z,11.7
2022-11-01T08:18:35.541Z,10.9
2022-11-01T08:19:39.611Z,11.4
2022-11-01T08:20:44.201Z,11.8
2022-11-01T08:21:48.351Z,11.7
2022-11-01T08:22:53.012Z,12.1
2022-11-01T08:23:57.538Z,11.9
2022-11-01T08:25:01.611Z,12.1
2022-11-01T08:26:06.211Z,12
2022-11-01T08:27:10.862Z,14.7
2022-11-01T08:28:15.519Z,12.6
2022-11-01T08:29:19.825Z,12
2022-11-01T08:30:24.263Z,11.7
2022-11-01T08:31:28.733Z,12.2
2022-11-01T08:32:33.211Z,10.7
2022-11-01T08:33:37.730Z,11.5
2022-11-01T08:34:42.354Z,14.1
2022-11-01T08:35:50.315Z,15.5
2022-11-01T08:36:51.758Z,13.1
2022-11-01T08:37:56.064Z,15.1
2022-11-01T08:39:00.665Z,12.7
2022-11-01T08:40:05.168Z,13.6
2022-11-01T08:41:09.814Z,14.5
2022-11-01T08:42:13.882Z,14.9
2022-11-01T08:43:17.966Z,12.4
2022-11-01T08:44:22.448Z,13
2022-11-01T08:45:26.605Z,14.9
2022-11-01T08:46:31.074Z,12.5
2022-11-01T08:47:35.142Z,17.8
2022-11-01T08:48:39.726Z,13
2022-11-01T08:49:43.790Z,11.4
2022-11-01T08:50:47.890Z,13.2
2022-11-01T08:51:52.398Z,12
2022-11-01T08:52:57.062Z,12.3
2022-11-01T08:54:07.182Z,13.3
2022-11-01T08:55:11.315Z,11.8
2022-11-01T08:56:15.998Z,11.2
2022-11-01T08:57:20.396Z,12.8
2022-11-01T08:58:24.486Z,11.8
2022-11-01T08:59:28.681Z,13.6
2022-11-01T09:00:33.242Z,10.7
2022-11-01T09:01:37.851Z,10.4
2022-11-01T09:02:42.320Z,12.1
2022-11-01T09:03:46.913Z,14.6
2022-11-01T09:04:51.442Z,12.4
2022-11-01T09:05:55.470Z,13.5
2022-11-01T09:06:59.622Z,12.4
2022-11-01T09:08:04.954Z,15
2022-11-01T09:09:08.701Z,15.1
2022-11-01T09:10:12.885Z,15.7
2022-11-01T09:11:16.986Z,14.8
2022-11-01T09:12:24.505Z,14.3
2022-11-01T09:13:25.588Z,14.5
2022-11-01T09:14:29.977Z,13.7
2022-11-01T09:15:34.238Z,12.8
2022-11-01T09:16:38.830Z,13.4
2022-11-01T09:17:43.482Z,11.8
2022-11-01T09:18:47.966Z,11.3
2022-11-01T09:19:53.048Z,12.7
2022-11-01T09:20:57.648Z,12.5
2022-11-01T09:22:02.206Z,12.6
2022-11-01T09:23:06.828Z,13.9
2022-11-01T09:24:11.342Z,13
2022-11-01T09:25:15.910Z,13.2
2022-11-01T09:26:19.971Z,11.8
2022-11-01T09:27:24.033Z,12.8
2022-11-01T09:28:31.417Z,14.1
2022-11-01T09:30:38.954Z,14.8
2022-11-01T09:31:40.713Z,13.6
2022-11-01T09:32:44.810Z,13.4
2022-11-01T09:33:48.885Z,14.4
2022-11-01T09:34:55.950Z,20.4
2022-11-01T09:36:00.114Z,13.2
2022-11-01T09:37:04.694Z,15.2
2022-11-01T09:38:09.326Z,15.6
2022-11-01T09:39:13.946Z,13.9
2022-11-01T09:40:18.423Z,11.2
2022-11-01T09:41:22.446Z,14
2022-11-01T09:42:31.686Z,18.1
2022-11-01T09:43:38.730Z,13.8
2022-11-01T09:44:42.827Z,16.7
2022-11-01T09:45:47.409Z,13.1
2022-11-01T09:46:53.435Z,20
2022-11-01T09:47:56.050Z,20.4
2022-11-01T09:49:00.145Z,19.1
2022-11-01T09:50:04.188Z,22.2
2022-11-01T09:51:16.371Z,22.3
2022-11-01T09:52:20.946Z,18.2
2022-11-01T09:53:25.029Z,14.9
2022-11-01T09:54:29.158Z,15.9
2022-11-01T09:55:33.233Z,13.8
2022-11-01T09:56:48.081Z,13
2022-11-01T09:58:02.917Z,16.3
2022-11-01T09:59:06.817Z,15
2022-11-01T10:00:14.413Z,15.3
2022-11-01T10:01:18.541Z,17.3
2022-11-01T10:02:32.982Z,18.1
2022-11-01T10:03:45.449Z,17.1
2022-11-01T10:04:57.691Z,17.5
2022-11-01T10:06:07.389Z,18.2
2022-11-01T10:07:16.997Z,18.4
2022-11-01T10:08:21.189Z,19.7
2022-11-01T10:09:35.849Z,17.3
2022-11-01T10:10:43.044Z,16
2022-11-01T10:11:57.730Z,15
2022-11-01T10:13:09.942Z,16.2
2022-11-01T10:14:19.146Z,17.4
2022-11-01T10:15:23.197Z,19.2
2022-11-01T10:16:38.045Z,16.9
2022-11-01T10:17:42.517Z,17.8
2022-11-01T10:18:52.169Z,15.7
2022-11-01T10:19:59.378Z,15.3
2022-11-01T10:21:03.990Z,15.7
2022-11-01T10:22:14.093Z,15.2
2022-11-01T10:23:23.338Z,14.5
2022-11-01T10:24:37.886Z,16.9
2022-11-01T10:25:45.110Z,14.5
2022-11-01T10:26:49.122Z,13.3
2022-11-01T10:28:03.993Z,15.1
2022-11-01T10:29:11.134Z,15
2022-11-01T10:30:23.297Z,12.8
2022-11-01T10:31:27.862Z,16.8
2022-11-01T10:32:31.913Z,14.3
2022-11-01T10:33:36.454Z,11.9
2022-11-01T10:34:40.449Z,12.3
2022-11-01T10:35:44.601Z,11.1
2022-11-01T10:36:51.713Z,12.1
2022-11-01T10:38:03.870Z,17
2022-11-01T10:39:48.565Z,16.6
2022-11-01T10:40:13.628Z,16.2
2022-11-01T10:41:17.169Z,14.8
2022-11-01T10:42:31.921Z,16.5
2022-11-01T10:43:35.961Z,14.3
2022-11-01T10:44:46.161Z,12.2
2022-11-01T10:45:50.214Z,13.2
2022-11-01T10:46:54.321Z,12.3
2022-11-01T10:47:58.465Z,15.1
2022-11-01T10:49:02.993Z,12.6
2022-11-01T10:50:07.719Z,14.2
2022-11-01T10:51:14.151Z,12.5
2022-11-01T10:52:18.308Z,11.8
2022-11-01T10:53:25.390Z,12.8
2022-11-01T10:54:29.577Z,13.1
2022-11-01T10:55:33.981Z,14
2022-11-01T10:56:43.729Z,12.5
2022-11-01T10:57:47.821Z,14.4
2022-11-01T10:58:52.357Z,14.5
2022-11-01T11:00:02.171Z,17.7
2022-11-01T11:01:07.290Z,13.5
2022-11-01T11:02:11.849Z,15.7
2022-11-01T11:03:21.374Z,16.1
2022-11-01T11:04:25.981Z,15.2
2022-11-01T11:05:30.547Z,14.2
2022-11-01T11:06:35.123Z,18.4
2022-11-01T11:07:39.745Z,15.2
2022-11-01T11:08:44.377Z,12.8
2022-11-01T11:09:52.053Z,14.6
2022-11-01T11:10:56.526Z,15.4
2022-11-01T11:12:03.628Z,16.3
2022-11-01T11:13:13.294Z,15.6
2022-11-01T11:14:17.817Z,15
2022-11-01T11:15:21.981Z,12.5
2022-11-01T11:16:31.576Z,16
2022-11-01T11:17:41.135Z,15.6
2022-11-01T11:18:45.184Z,18.1
2022-11-01T11:19:59.981Z,13.9
2022-11-01T11:21:04.641Z,19.4
2022-11-01T11:22:09.218Z,13.5
2022-11-01T11:23:13.177Z,13.8
2022-11-01T11:24:17.307Z,13
2022-11-01T11:25:29.452Z,14.3
2022-11-01T11:26:37.555Z,12.7
2022-11-01T11:27:38.232Z,13.3
2022-11-01T11:28:48.201Z,12.9
2022-11-01T11:29:52.331Z,14
2022-11-01T11:30:56.445Z,13
2022-11-01T11:32:11.149Z,12.3
2022-11-01T11:33:18.258Z,13.4
2022-11-01T11:34:22.309Z,11.4
2022-11-01T11:35:37.013Z,13.4
2022-11-01T11:36:41.901Z,12.6
2022-11-01T11:37:45.662Z,12.9
2022-11-01T11:38:49.770Z,14.5
2022-11-01T11:39:53.913Z,11.7
2022-11-01T11:41:03.541Z,14.6
2022-11-01T11:42:07.713Z,14.4
2022-11-01T11:43:14.859Z,16.7
2022-11-01T11:44:19.433Z,15.8
2022-11-01T11:45:31.530Z,14.5
2022-11-01T11:46:36.437Z,15.4
2022-11-01T11:47:40.720Z,14.5
2022-11-01T11:48:45.310Z,16.1
2022-11-01T11:49:52.531Z,16.8
2022-11-01T11:50:56.936Z,14.8
2022-11-01T11:52:04.536Z,16.1
2022-11-01T11:53:08.764Z,16.1
2022-11-01T11:54:16.272Z,14.3
2022-11-01T11:55:26.534Z,15.1
2022-11-01T11:56:36.068Z,15.3
2022-11-01T11:57:40.209Z,14.5
2022-11-01T11:58:44.790Z,15.7
2022-11-01T11:59:48.766Z,15.7
2022-11-01T12:00:53.047Z,13.3
2022-11-01T12:02:00.290Z,13.6
2022-11-01T12:03:05.139Z,14.4
2022-11-01T12:04:09.329Z,13.9
2022-11-01T12:05:16.945Z,12.2
2022-11-01T12:06:21.835Z,12.6
2022-11-01T12:07:27.317Z,13.2
2022-11-01T12:08:35.081Z,13.1
2022-11-01T12:09:44.653Z,13.8
2022-11-01T12:10:48.922Z,13.1
2022-11-01T12:11:53.625Z,14.9
2022-11-01T12:12:57.921Z,13.6
2022-11-01T12:14:02.105Z,11
2022-11-01T12:15:16.725Z,12.6
2022-11-01T12:17:31.169Z,13.4
2022-11-01T12:18:45.849Z,13.7
2022-11-01T12:19:50.445Z,12.8
2022-11-01T12:20:59.984Z,11.4
2022-11-01T12:22:04.134Z,15.4
2022-11-01T12:23:08.653Z,13.1
2022-11-01T12:24:13.185Z,14.1
2022-11-01T12:25:28.113Z,11.9
2022-11-01T12:26:32.645Z,13.4
2022-11-01T12:27:37.082Z,15.1
2022-11-01T12:28:41.209Z,13.9
2022-11-01T12:29:48.533Z,12.5
2022-11-01T12:30:52.855Z,12.3
2022-11-01T12:31:57.162Z,15.3
2022-11-01T12:33:06.641Z,12.9
2022-11-01T12:34:16.245Z,13.1
2022-11-01T12:35:26.065Z,13.6
2022-11-01T12:36:33.217Z,16.4
2022-11-01T12:37:40.228Z,14.2
2022-11-01T12:38:47.436Z,14
2022-11-01T12:39:52.144Z,12.1
2022-11-01T12:40:59.732Z,13.1
2022-11-01T12:42:14.348Z,13
2022-11-01T12:43:19.068Z,12.9
2022-11-01T12:44:28.525Z,14.5
2022-11-01T12:45:33.072Z,14.3
2022-11-01T12:46:47.936Z,12.8
2022-11-01T12:47:52.404Z,11.6
2022-11-01T12:49:02.197Z,11.5
2022-11-01T12:50:11.732Z,13.3
2022-11-01T12:51:21.949Z,12.8
2022-11-01T12:52:26.505Z,11.5
2022-11-01T12:53:41.206Z,10.7
2022-11-01T12:54:48.338Z,11.7
2022-11-01T12:55:52.525Z,14.3
2022-11-01T12:56:56.984Z,13.4
2022-11-01T12:58:01.159Z,12.4
2022-11-01T12:59:05.620Z,13.3
2022-11-01T13:00:13.234Z,12.6
2022-11-01T13:01:18.016Z,12.5
2022-11-01T13:02:27.625Z,12.4
2022-11-01T13:03:40.192Z,13.3
2022-11-01T13:04:54.932Z,12.4
2022-11-01T13:06:04.552Z,13.7
2022-11-01T13:07:14.185Z,12.8
2022-11-01T13:08:28.889Z,13.6
2022-11-01T13:09:41.640Z,13.3
2022-11-01T13:10:51.269Z,12.3
2022-11-01T13:11:55.386Z,14
2022-11-01T13:13:00.026Z,13.1
2022-11-01T13:14:12.126Z,13
2022-11-01T13:15:27.177Z,13.7
2022-11-01T13:16:32.239Z,12.9
2022-11-01T13:17:36.706Z,13.8
2022-11-01T13:18:41.118Z,15
2022-11-01T13:19:55.857Z,13
2022-11-01T13:21:08.128Z,15
2022-11-01T13:22:12.273Z,13.6
2022-11-01T13:23:21.814Z,15.7
2022-11-01T13:24:36.472Z,13.1
2022-11-01T13:25:46.216Z,12.4
2022-11-01T13:26:53.517Z,11.5
2022-11-01T13:28:06.089Z,12.4
2022-11-01T13:29:18.795Z,15.8
2022-11-01T13:30:31.054Z,16.5
2022-11-01T13:31:35.628Z,14.3
2022-11-01T13:32:45.200Z,12.4
2022-11-01T13:33:57.510Z,14.6
2022-11-01T13:35:09.497Z,14.3
2022-11-01T13:36:27.183Z,16.5
2022-11-01T13:37:38.685Z,14.4
2022-11-01T13:38:49.388Z,14.6
2022-11-01T13:40:01.480Z,12.7
2022-11-01T13:41:16.521Z,11.7
2022-11-01T13:42:25.916Z,12.4
2022-11-01T13:43:35.425Z,15.8
2022-11-01T13:44:39.597Z,13.1
2022-11-01T13:45:49.721Z,12.8
2022-11-01T13:46:56.840Z,13.8
2022-11-01T13:48:11.929Z,13.3
2022-11-01T13:49:19.404Z,13.6
2022-11-01T13:50:23.906Z,14.1
2022-11-01T13:51:35.072Z,13.1
2022-11-01T13:52:44.576Z,13.3
2022-11-01T13:53:48.765Z,12.7
2022-11-01T13:54:53.236Z,14.6
2022-11-01T13:56:02.992Z,13.4
2022-11-01T13:57:17.660Z,14.2
2022-11-01T13:58:21.736Z,14.2
2022-11-01T13:59:25.885Z,13.4
2022-11-01T14:00:31.098Z,12.8
2022-11-01T14:01:35.755Z,12.8
2022-11-01T14:02:39.789Z,12.2
2022-11-01T14:03:49.973Z,12.6
2022-11-01T14:05:03.453Z,12.5
2022-11-01T14:06:10.518Z,15.9
2022-11-01T14:07:22.711Z,11.4
2022-11-01T14:08:26.889Z,13.3
2022-11-01T14:09:31.389Z,15.1
2022-11-01T14:10:35.872Z,12.3
2022-11-01T14:11:39.984Z,12.5
2022-11-01T14:12:49.568Z,11.1
2022-11-01T14:13:56.872Z,12.4
2022-11-01T14:15:01.289Z,13.9
2022-11-01T14:16:16.104Z,12.5
2022-11-01T14:17:20.104Z,11.1
2022-11-01T14:18:24.247Z,10.8
2022-11-01T14:19:28.368Z,12.4
2022-11-01T14:20:32.873Z,13.9
2022-11-01T14:21:43.101Z,12.7
2022-11-01T14:22:47.656Z,11.6
2022-11-01T14:23:52.178Z,12.4
2022-11-01T14:24:59.321Z,10.9
2022-11-01T14:26:03.396Z,11.8
2022-11-01T14:27:18.512Z,13.2
2022-11-01T14:28:27.754Z,14.2
2022-11-01T14:29:32.525Z,14.3
2022-11-01T14:30:36.936Z,12.7
2022-11-01T14:31:40.946Z,11.3
2022-11-01T14:32:45.636Z,11.7
2022-11-01T14:34:00.209Z,13.6
2022-11-01T14:35:01.832Z,12.1
2022-11-01T14:36:06.840Z,15.7
2022-11-01T14:37:11.461Z,11.8
2022-11-01T14:38:16.040Z,12.8
2022-11-01T14:39:20.444Z,11.8
2022-11-01T14:40:32.344Z,11.8
2022-11-01T14:41:44.456Z,11.5
2022-11-01T14:42:48.964Z,11.3
2022-11-01T14:43:53.132Z,12.6
2022-11-01T14:44:57.683Z,13.1
2022-11-01T14:46:01.780Z,12.3
2022-11-01T14:47:09.326Z,12.4